createdAt,value
2023-04-27T00:01:13.503Z,8.75
2023-04-27T00:03:40.349Z,12.02
2023-04-27T00:06:09.203Z,9.55
2023-04-27T00:08:35.818Z,7.70
2023-04-27T00:11:02.564Z,10.95
2023-04-27T00:13:29.179Z,9.20
2023-04-27T00:15:55.790Z,9.95
2023-04-27T00:18:22.565Z,7.05
2023-04-27T00:20:49.698Z,11.90
2023-04-27T00:23:16.509Z,7.65
2023-04-27T00:25:43.099Z,12.32
2023-04-27T00:28:09.739Z,9.40
2023-04-27T00:30:36.410Z,9.00
2023-04-27T00:33:03.027Z,8.10
2023-04-27T00:35:29.699Z,8.68
2023-04-27T00:37:56.273Z,12.02
2023-04-27T00:40:22.876Z,9.75
2023-04-27T00:42:49.445Z,9.80
2023-04-27T00:45:16.121Z,9.65
2023-04-27T00:47:43.423Z,7.47
2023-04-27T00:50:10.664Z,11.07
2023-04-27T00:52:37.581Z,9.13
2023-04-27T00:55:05.120Z,8.95
2023-04-27T00:57:33.453Z,10.35
2023-04-27T01:00:01.253Z,10.57
2023-04-27T01:02:28.592Z,9.35
2023-04-27T01:04:55.954Z,7.78
2023-04-27T01:07:26.869Z,11.48
2023-04-27T01:09:53.656Z,12.52
2023-04-27T01:12:20.266Z,10.15
2023-04-27T01:14:46.870Z,10.75
2023-04-27T01:17:14.356Z,7.68
2023-04-27T01:19:41.290Z,10.50
2023-04-27T01:22:08.101Z,8.77
2023-04-27T01:24:34.714Z,8.07
2023-04-27T01:27:01.806Z,10.02
2023-04-27T01:29:28.598Z,11.18
2023-04-27T01:31:55.134Z,7.25
2023-04-27T01:34:21.836Z,10.93
2023-04-27T01:36:48.493Z,9.13
2023-04-27T01:39:15.343Z,12.25
2023-04-27T01:41:42.110Z,12.00
2023-04-27T01:44:08.758Z,10.82
2023-04-27T01:46:35.414Z,9.27
2023-04-27T01:49:02.104Z,9.52
2023-04-27T01:51:28.715Z,9.52
2023-04-27T01:53:55.574Z,10.50
2023-04-27T01:56:22.141Z,12.88
2023-04-27T01:58:48.685Z,10.65
2023-04-27T02:01:15.874Z,9.52
2023-04-27T02:03:42.473Z,9.93
2023-04-27T02:06:09.458Z,11.50
2023-04-27T02:08:36.270Z,9.13
2023-04-27T02:11:03.090Z,9.90
2023-04-27T02:13:29.639Z,9.55
2023-04-27T02:15:56.443Z,9.52
2023-04-27T02:18:23.145Z,12.88
2023-04-27T02:20:49.914Z,10.88
2023-04-27T02:23:16.720Z,11.68
2023-04-27T02:25:46.723Z,11.38
2023-04-27T02:28:14.242Z,11.10
2023-04-27T02:30:41.334Z,13.00
2023-04-27T02:33:08.056Z,10.55
2023-04-27T02:35:34.716Z,11.80
2023-04-27T02:38:01.236Z,10.25
2023-04-27T02:40:27.791Z,11.48
2023-04-27T02:42:54.436Z,12.13
2023-04-27T02:45:21.052Z,12.55
2023-04-27T02:47:47.628Z,12.50
2023-04-27T02:50:14.329Z,13.13
2023-04-27T02:52:40.966Z,10.35
2023-04-27T02:55:07.827Z,13.30
2023-04-27T02:57:34.363Z,12.18
2023-04-27T03:00:02.802Z,11.38
2023-04-27T03:02:30.579Z,11.13
2023-04-27T03:04:57.632Z,14.80
2023-04-27T03:07:24.167Z,12.27
2023-04-27T03:09:50.717Z,10.93
2023-04-27T03:12:17.265Z,12.30
2023-04-27T03:14:43.916Z,13.30
2023-04-27T03:17:10.565Z,16.55
2023-04-27T03:19:37.195Z,11.52
2023-04-27T03:22:03.751Z,16.60
2023-04-27T03:24:30.995Z,12.10
2023-04-27T03:26:57.569Z,12.80
2023-04-27T03:29:24.169Z,14.93
2023-04-27T03:31:50.913Z,15.35
2023-04-27T03:34:17.712Z,13.90
2023-04-27T03:36:44.256Z,16.27
2023-04-27T03:39:10.978Z,11.55
2023-04-27T03:41:37.617Z,16.55
2023-04-27T03:44:04.352Z,15.02
2023-04-27T03:46:31.156Z,16.95
2023-04-27T03:48:57.745Z,15.05
2023-04-27T03:51:24.646Z,15.23
2023-04-27T03:53:51.195Z,12.82
2023-04-27T03:56:17.728Z,17.23
2023-04-27T03:58:44.293Z,12.77
2023-04-27T04:01:11.169Z,17.75
2023-04-27T04:03:38.009Z,14.90
2023-04-27T04:06:05.031Z,12.35
2023-04-27T04:08:33.075Z,12.90
2023-04-27T04:11:00.386Z,15.77
2023-04-27T04:13:27.111Z,13.48
2023-04-27T04:16:10.165Z,12.50
2023-04-27T04:18:37.310Z,16.15
2023-04-27T04:21:04.197Z,16.67
2023-04-27T04:23:30.754Z,15.57
2023-04-27T04:25:57.824Z,15.93
2023-04-27T04:28:24.906Z,15.55
2023-04-27T04:30:51.808Z,13.20
2023-04-27T04:33:18.710Z,11.13
2023-04-27T04:35:45.265Z,17.85
2023-04-27T04:38:12.020Z,14.05
2023-04-27T04:40:39.272Z,16.30
2023-04-27T04:43:06.600Z,16.02
2023-04-27T04:45:33.281Z,13.90
2023-04-27T04:48:02.317Z,12.85
2023-04-27T04:50:29.214Z,17.35
2023-04-27T04:52:56.562Z,14.60
2023-04-27T04:55:23.149Z,17.63
2023-04-27T04:57:49.786Z,12.35
2023-04-27T05:00:16.481Z,13.50
2023-04-27T05:02:43.351Z,14.25
2023-04-27T05:05:10.314Z,13.60
2023-04-27T05:07:36.862Z,16.50
2023-04-27T05:10:03.673Z,13.52
2023-04-27T05:12:30.225Z,12.52
2023-04-27T05:14:56.776Z,15.77
2023-04-27T05:17:23.515Z,17.15
2023-04-27T05:19:50.112Z,13.63
2023-04-27T05:22:16.663Z,13.43
2023-04-27T05:24:43.312Z,16.38
2023-04-27T05:27:09.857Z,15.93
2023-04-27T05:29:36.463Z,11.63
2023-04-27T05:32:03.344Z,17.50
2023-04-27T05:34:29.910Z,12.65
2023-04-27T05:36:56.486Z,13.15
2023-04-27T05:39:23.154Z,14.38
2023-04-27T05:41:49.764Z,14.10
2023-04-27T05:44:16.789Z,13.48
2023-04-27T05:46:43.339Z,16.10
2023-04-27T05:49:09.910Z,13.32
2023-04-27T05:51:38.333Z,14.23
2023-04-27T05:54:04.949Z,13.73
2023-04-27T05:56:31.468Z,12.80
2023-04-27T05:58:58.713Z,13.23
2023-04-27T06:01:26.834Z,14.48
2023-04-27T06:03:53.469Z,17.77
2023-04-27T06:06:20.181Z,12.93
2023-04-27T06:08:46.738Z,12.40
2023-04-27T06:11:13.236Z,14.52
2023-04-27T06:13:39.775Z,12.27
2023-04-27T06:16:06.466Z,12.63
2023-04-27T06:18:33.100Z,14.05
2023-04-27T06:21:01.611Z,17.85
2023-04-27T06:23:28.636Z,15.38
2023-04-27T06:25:55.667Z,11.02
2023-04-27T06:28:22.267Z,11.07
2023-04-27T06:30:48.909Z,16.15
2023-04-27T06:33:15.696Z,12.85
2023-04-27T06:35:43.208Z,11.73
2023-04-27T06:38:10.577Z,15.73
2023-04-27T06:40:37.627Z,11.20
2023-04-27T06:43:04.946Z,12.93
2023-04-27T06:45:31.574Z,14.82
2023-04-27T06:47:58.133Z,15.85
2023-04-27T06:50:24.687Z,14.82
2023-04-27T06:52:51.405Z,14.95
2023-04-27T06:55:18.148Z,12.98
2023-04-27T06:57:44.731Z,13.98
2023-04-27T07:00:13.403Z,17.83
2023-04-27T07:02:40.201Z,14.73
2023-04-27T07:05:07.079Z,14.60
2023-04-27T07:07:35.022Z,18.58
2023-04-27T07:10:01.686Z,13.20
2023-04-27T07:12:28.255Z,14.57
2023-04-27T07:14:54.939Z,14.85
2023-04-27T07:17:23.202Z,15.57
2023-04-27T07:19:49.982Z,14.00
2023-04-27T07:22:16.561Z,15.25
2023-04-27T07:24:43.350Z,19.45
2023-04-27T07:27:10.334Z,16.17
2023-04-27T07:29:37.943Z,14.15
2023-04-27T07:32:07.449Z,17.85
2023-04-27T07:34:49.217Z,17.90
2023-04-27T07:37:20.085Z,14.95
2023-04-27T07:39:47.379Z,16.95
2023-04-27T07:42:13.972Z,16.08
2023-04-27T07:44:40.905Z,19.77
2023-04-27T07:47:07.724Z,16.05
2023-04-27T07:49:35.524Z,14.35
2023-04-27T07:52:02.115Z,16.65
2023-04-27T07:54:28.832Z,12.43
2023-04-27T07:56:55.438Z,17.20
2023-04-27T07:59:22.151Z,14.13
2023-04-27T08:01:48.782Z,15.32
2023-04-27T08:04:16.341Z,13.27
2023-04-27T08:06:43.575Z,14.18
2023-04-27T08:09:10.463Z,21.27
2023-04-27T08:11:37.115Z,10.20
2023-04-27T08:14:03.768Z,10.95
2023-04-27T08:16:30.501Z,12.02
2023-04-27T08:18:59.194Z,17.85
2023-04-27T08:21:28.460Z,18.25
2023-04-27T08:23:55.101Z,12.68
2023-04-27T08:26:24.371Z,19.38
2023-04-27T08:28:52.260Z,11.60
2023-04-27T08:31:18.818Z,20.00
2023-04-27T08:33:45.470Z,20.83
2023-04-27T08:36:12.014Z,23.73
2023-04-27T08:38:38.725Z,13.07
2023-04-27T08:41:20.394Z,12.52
2023-04-27T08:43:50.064Z,15.93
2023-04-27T08:46:21.535Z,11.10
2023-04-27T08:48:52.365Z,12.57
2023-04-27T08:51:20.117Z,16.90
2023-04-27T08:53:52.110Z,15.60
2023-04-27T08:56:19.787Z,14.55
2023-04-27T08:58:46.623Z,16.05
2023-04-27T09:01:13.216Z,13.90
2023-04-27T09:03:40.008Z,17.90
2023-04-27T09:06:07.353Z,18.20
2023-04-27T09:08:51.246Z,13.77
2023-04-27T09:11:36.515Z,15.68
2023-04-27T09:14:15.666Z,13.95
2023-04-27T09:16:43.319Z,21.17
2023-04-27T09:19:10.619Z,8.52
2023-04-27T09:21:37.172Z,15.57
2023-04-27T09:24:13.006Z,13.93
2023-04-27T09:26:42.689Z,17.27
2023-04-27T09:29:09.496Z,10.80
2023-04-27T09:31:36.662Z,17.60
2023-04-27T09:34:04.562Z,21.25
2023-04-27T09:36:32.630Z,10.75
2023-04-27T09:39:04.707Z,15.93
2023-04-27T09:41:32.901Z,15.40
2023-04-27T09:44:00.248Z,12.00
2023-04-27T09:46:28.800Z,20.17
2023-04-27T09:48:56.606Z,15.00
2023-04-27T09:51:23.171Z,11.25
2023-04-27T09:53:54.142Z,15.13
2023-04-27T09:56:42.404Z,12.05
2023-04-27T10:01:54.861Z,10.63
2023-04-27T10:07:17.293Z,11.68
2023-04-27T10:09:47.313Z,10.73
2023-04-27T10:14:55.564Z,12.60
2023-04-27T10:17:37.876Z,11.35
2023-04-27T10:20:07.592Z,7.80
2023-04-27T10:27:56.170Z,14.32
2023-04-27T10:30:26.138Z,12.07
2023-04-27T10:35:23.024Z,8.20
2023-04-27T10:37:49.712Z,12.82
2023-04-27T10:40:17.774Z,15.38
2023-04-27T10:42:46.033Z,11.60
2023-04-27T10:45:13.953Z,10.38
2023-04-27T10:47:44.160Z,12.40
2023-04-27T10:50:13.425Z,10.68
2023-04-27T10:52:42.533Z,13.48
2023-04-27T10:55:18.390Z,11.25
2023-04-27T10:57:50.025Z,9.13
2023-04-27T11:00:24.062Z,8.80
2023-04-27T11:02:51.165Z,10.13
2023-04-27T11:05:20.926Z,7.45
2023-04-27T11:07:47.977Z,13.70
2023-04-27T11:10:17.247Z,8.20
2023-04-27T11:12:44.094Z,12.52
2023-04-27T11:15:11.798Z,11.55
2023-04-27T11:17:38.639Z,12.75
2023-04-27T11:20:08.738Z,12.02
2023-04-27T11:22:45.090Z,9.95
2023-04-27T11:25:12.330Z,11.48
2023-04-27T11:27:41.019Z,9.73
2023-04-27T11:30:19.762Z,11.57
2023-04-27T11:32:46.380Z,14.07
2023-04-27T11:35:13.749Z,10.02
2023-04-27T11:37:40.281Z,9.45
2023-04-27T11:40:08.706Z,10.60
2023-04-27T11:42:35.422Z,7.60
2023-04-27T11:45:06.641Z,10.32
2023-04-27T11:47:35.652Z,6.35
2023-04-27T11:50:05.846Z,10.77
2023-04-27T11:57:43.098Z,8.88
2023-04-27T12:00:11.119Z,12.63
2023-04-27T12:02:38.931Z,8.32
2023-04-27T12:05:07.604Z,9.75
2023-04-27T12:07:34.382Z,12.68
2023-04-27T12:10:01.356Z,9.48
2023-04-27T12:12:28.306Z,12.95
2023-04-27T12:14:54.879Z,9.27
2023-04-27T12:17:21.553Z,9.18
2023-04-27T12:19:48.138Z,8.52
2023-04-27T12:22:14.716Z,6.55
2023-04-27T12:24:42.366Z,7.28
2023-04-27T12:27:08.983Z,11.48
2023-04-27T12:29:35.623Z,8.30
2023-04-27T12:32:02.188Z,9.38
2023-04-27T12:34:28.790Z,7.45
2023-04-27T12:36:55.407Z,10.05
2023-04-27T12:39:25.522Z,10.32
2023-04-27T12:41:53.044Z,9.02
2023-04-27T12:44:21.391Z,9.85
2023-04-27T12:46:49.059Z,10.48
2023-04-27T12:49:16.047Z,7.47
2023-04-27T12:51:43.116Z,15.80
2023-04-27T12:54:11.321Z,8.77
2023-04-27T12:56:38.042Z,9.98
2023-04-27T12:59:05.986Z,13.05
2023-04-27T13:01:32.696Z,15.85
2023-04-27T13:04:02.191Z,8.93
2023-04-27T13:06:29.596Z,13.38
2023-04-27T13:08:56.464Z,10.68
2023-04-27T13:11:24.559Z,12.32
2023-04-27T13:13:51.265Z,9.38
2023-04-27T13:16:20.352Z,10.07
2023-04-27T13:18:49.611Z,12.07
2023-04-27T13:21:16.687Z,9.88
2023-04-27T13:23:43.310Z,7.78
2023-04-27T13:26:09.954Z,10.52
2023-04-27T13:28:36.577Z,8.82
2023-04-27T13:31:04.079Z,10.55
2023-04-27T13:33:32.444Z,12.55
2023-04-27T13:36:02.194Z,9.43
2023-04-27T13:38:29.060Z,10.80
2023-04-27T13:40:55.855Z,9.75
2023-04-27T13:43:22.398Z,10.10
2023-04-27T13:45:50.908Z,12.25
2023-04-27T13:48:17.532Z,10.50
2023-04-27T13:50:44.116Z,14.02
2023-04-27T13:53:11.899Z,13.07
2023-04-27T13:55:38.553Z,11.35
2023-04-27T13:58:05.145Z,12.88
2023-04-27T14:00:34.635Z,10.65
2023-04-27T14:03:01.594Z,14.88
2023-04-27T14:05:28.716Z,15.32
2023-04-27T14:07:55.388Z,13.73
2023-04-27T14:10:22.975Z,10.18
2023-04-27T14:12:49.765Z,10.52
2023-04-27T14:15:16.390Z,16.48
2023-04-27T14:17:43.114Z,13.82
2023-04-27T14:20:09.805Z,12.10
2023-04-27T14:22:37.080Z,14.57
2023-04-27T14:25:03.886Z,17.25
2023-04-27T14:27:30.591Z,8.60
2023-04-27T14:29:57.145Z,12.13
2023-04-27T14:32:23.772Z,13.85
2023-04-27T14:34:50.589Z,12.77
2023-04-27T14:37:17.694Z,17.48
2023-04-27T14:39:45.430Z,10.27
2023-04-27T14:42:12.226Z,16.00
2023-04-27T14:44:38.928Z,17.60
2023-04-27T14:47:06.439Z,12.05
2023-04-27T14:49:33.090Z,17.38
2023-04-27T14:52:03.264Z,14.98
2023-04-27T14:54:30.074Z,10.50
2023-04-27T14:56:58.614Z,12.15
2023-04-27T14:59:25.656Z,17.50
2023-04-27T15:01:52.397Z,13.73
2023-04-27T15:04:20.419Z,12.65
2023-04-27T15:06:47.097Z,11.55
2023-04-27T15:09:13.910Z,16.13
2023-04-27T15:11:41.353Z,13.05
2023-04-27T15:14:08.839Z,13.15
2023-04-27T15:16:35.679Z,12.60
2023-04-27T15:19:02.893Z,15.48
2023-04-27T15:21:31.302Z,14.82
2023-04-27T15:23:57.893Z,11.63
2023-04-27T15:26:26.784Z,17.60
2023-04-27T15:28:54.886Z,16.52
2023-04-27T15:31:22.191Z,13.95
2023-04-27T15:33:48.833Z,15.57
2023-04-27T15:36:15.999Z,16.25
2023-04-27T15:38:42.565Z,13.02
2023-04-27T15:41:09.125Z,12.98
2023-04-27T15:43:36.462Z,9.55
2023-04-27T15:46:05.513Z,10.48
2023-04-27T15:48:32.471Z,13.05
2023-04-27T15:50:59.008Z,14.32
2023-04-27T15:53:25.628Z,12.32
2023-04-27T15:55:52.137Z,11.38
2023-04-27T15:58:18.669Z,13.35
2023-04-27T16:00:45.633Z,11.32
2023-04-27T16:03:14.335Z,14.82
2023-04-27T16:05:41.349Z,14.25
2023-04-27T16:08:07.898Z,17.30
2023-04-27T16:10:34.576Z,12.27
2023-04-27T16:13:01.107Z,10.95
2023-04-27T16:15:27.882Z,12.93
2023-04-27T16:17:54.430Z,14.45
2023-04-27T16:20:22.683Z,15.05
2023-04-27T16:22:49.247Z,15.75
2023-04-27T16:25:16.100Z,9.75
2023-04-27T16:27:43.571Z,19.77
2023-04-27T16:30:10.444Z,18.20
2023-04-27T16:32:37.512Z,13.20
2023-04-27T16:35:04.498Z,16.15
2023-04-27T16:37:31.439Z,10.60
2023-04-27T16:40:06.758Z,12.30
2023-04-27T16:42:33.630Z,14.52
2023-04-27T16:45:02.231Z,14.40
2023-04-27T16:47:29.052Z,16.05
2023-04-27T16:49:55.732Z,14.13
2023-04-27T16:52:22.253Z,14.10
2023-04-27T16:54:48.877Z,13.38
2023-04-27T16:57:15.693Z,12.60
2023-04-27T16:59:42.256Z,11.60
2023-04-27T17:02:23.164Z,11.98
2023-04-27T17:04:51.599Z,15.80
2023-04-27T17:07:18.519Z,16.60
2023-04-27T17:09:45.613Z,17.92
2023-04-27T17:12:13.763Z,24.95
2023-04-27T17:14:40.561Z,19.10
2023-04-27T17:17:07.379Z,17.75
2023-04-27T17:19:34.165Z,19.63
2023-04-27T17:22:00.752Z,15.02
2023-04-27T17:24:27.786Z,18.75
2023-04-27T17:26:54.536Z,21.15
2023-04-27T17:29:21.767Z,21.08
2023-04-27T17:31:49.299Z,18.60
2023-04-27T17:34:16.011Z,18.55
2023-04-27T17:36:42.617Z,25.48
2023-04-27T17:39:09.165Z,23.58
2023-04-27T17:41:37.111Z,23.95
2023-04-27T17:44:04.035Z,19.55
2023-04-27T17:46:30.776Z,28.13
2023-04-27T17:48:57.647Z,17.73
2023-04-27T17:51:24.206Z,27.90
2023-04-27T17:53:50.859Z,19.15
2023-04-27T17:56:17.388Z,23.02
2023-04-27T17:58:43.972Z,27.02
2023-04-27T18:01:11.647Z,22.63
2023-04-27T18:03:38.665Z,25.27
2023-04-27T18:06:05.549Z,22.55
2023-04-27T18:08:32.140Z,23.42
2023-04-27T18:10:58.785Z,20.35
2023-04-27T18:13:25.446Z,24.25
2023-04-27T18:15:51.995Z,22.55
2023-04-27T18:18:23.837Z,26.33
2023-04-27T18:20:51.731Z,26.15
2023-04-27T18:23:18.302Z,23.70
2023-04-27T18:25:44.835Z,23.50
2023-04-27T18:28:11.555Z,22.13
2023-04-27T18:30:38.867Z,22.35
2023-04-27T18:33:05.532Z,21.33
2023-04-27T18:35:32.154Z,25.67
2023-04-27T18:37:58.713Z,24.15
2023-04-27T18:40:26.081Z,24.50
2023-04-27T18:42:53.372Z,29.52
2023-04-27T18:45:20.280Z,22.33
2023-04-27T18:47:46.903Z,28.65
2023-04-27T18:50:13.679Z,25.20
2023-04-27T18:52:40.496Z,25.33
2023-04-27T18:55:09.108Z,24.17
2023-04-27T18:57:36.061Z,20.20
2023-04-27T19:00:05.712Z,22.83
2023-04-27T19:02:32.920Z,26.05
2023-04-27T19:05:10.936Z,27.85
2023-04-27T19:07:39.440Z,20.77
2023-04-27T19:10:06.768Z,23.27
2023-04-27T19:12:33.359Z,18.83
2023-04-27T19:14:59.884Z,22.95
2023-04-27T19:17:26.906Z,22.30
2023-04-27T19:19:53.640Z,27.92
2023-04-27T19:22:20.179Z,20.48
2023-04-27T19:24:47.836Z,19.52
2023-04-27T19:27:14.446Z,19.73
2023-04-27T19:29:53.656Z,24.98
2023-04-27T19:32:21.532Z,32.10
2023-04-27T19:34:48.794Z,23.48
2023-04-27T19:37:16.036Z,22.98
2023-04-27T19:39:42.664Z,24.40
2023-04-27T19:42:09.484Z,24.55
2023-04-27T19:44:36.082Z,25.60
2023-04-27T19:47:02.829Z,22.83
2023-04-27T19:49:32.721Z,20.33
2023-04-27T19:52:00.122Z,21.92
2023-04-27T19:54:26.682Z,20.95
2023-04-27T19:56:53.911Z,22.30
2023-04-27T19:59:20.719Z,25.05
2023-04-27T20:01:47.560Z,21.80
2023-04-27T20:04:15.105Z,24.85
2023-04-27T20:06:43.356Z,21.13
2023-04-27T20:09:10.308Z,23.00
2023-04-27T20:11:36.879Z,22.38
2023-04-27T20:14:03.534Z,26.17
2023-04-27T20:16:30.749Z,17.65
2023-04-27T20:18:57.312Z,27.05
2023-04-27T20:21:23.892Z,22.60
2023-04-27T20:23:50.549Z,22.33
2023-04-27T20:26:17.167Z,24.27
2023-04-27T20:28:43.724Z,17.60
2023-04-27T20:31:10.905Z,22.20
2023-04-27T20:33:37.567Z,22.77
2023-04-27T20:36:14.164Z,19.60
2023-04-27T20:38:44.088Z,21.80
2023-04-27T20:41:12.382Z,21.35
2023-04-27T20:43:40.326Z,18.92
2023-04-27T20:46:08.150Z,20.48
2023-04-27T20:48:34.839Z,15.98
2023-04-27T20:51:01.581Z,23.35
2023-04-27T20:53:28.480Z,17.33
2023-04-27T20:55:55.015Z,19.08
2023-04-27T20:58:21.738Z,24.63
2023-04-27T21:00:48.343Z,18.73
2023-04-27T21:03:15.041Z,17.10
2023-04-27T21:05:41.739Z,19.67
2023-04-27T21:08:08.327Z,28.85
2023-04-27T21:10:35.612Z,18.08
2023-04-27T21:13:04.086Z,23.23
2023-04-27T21:15:30.680Z,19.67
2023-04-27T21:17:57.246Z,22.23
2023-04-27T21:20:23.946Z,19.42
2023-04-27T21:22:50.477Z,19.33
2023-04-27T21:25:17.073Z,17.60
2023-04-27T21:27:43.664Z,17.40
2023-04-27T21:30:11.078Z,18.27
2023-04-27T21:32:37.750Z,21.42
2023-04-27T21:35:04.684Z,23.10
2023-04-27T21:37:31.243Z,16.83
2023-04-27T21:39:57.840Z,23.05
2023-04-27T21:42:24.409Z,17.52
2023-04-27T21:44:51.030Z,17.95
2023-04-27T21:47:17.582Z,21.45
2023-04-27T21:49:44.113Z,22.00
2023-04-27T21:52:11.203Z,20.92
2023-04-27T21:54:37.773Z,15.85
2023-04-27T21:57:04.368Z,19.48
2023-04-27T21:59:30.876Z,21.83
2023-04-27T22:01:59.474Z,26.80
2023-04-27T22:04:26.362Z,27.23
2023-04-27T22:06:53.113Z,25.13
2023-04-27T22:09:19.699Z,17.33
2023-04-27T22:11:46.649Z,21.35
2023-04-27T22:14:13.347Z,24.80
2023-04-27T22:16:40.052Z,22.75
2023-04-27T22:19:06.990Z,21.27
2023-04-27T22:21:33.615Z,24.80
2023-04-27T22:24:00.215Z,24.88
2023-04-27T22:26:26.872Z,25.58
2023-04-27T22:28:53.711Z,23.27
2023-04-27T22:31:21.825Z,20.08
2023-04-27T22:33:48.400Z,25.15
2023-04-27T22:36:14.996Z,29.40
2023-04-27T22:38:41.889Z,23.75
2023-04-27T22:41:08.431Z,25.48
2023-04-27T22:43:34.961Z,26.98
2023-04-27T22:46:01.596Z,25.00
2023-04-27T22:48:28.233Z,26.08
2023-04-27T22:50:54.763Z,30.27
2023-04-27T22:53:21.622Z,23.50
2023-04-27T22:55:48.186Z,33.22
2023-04-27T22:58:14.724Z,26.25
2023-04-27T23:00:41.383Z,26.40
2023-04-27T23:03:08.185Z,28.00
2023-04-27T23:05:34.857Z,29.42
2023-04-27T23:08:01.451Z,29.02
2023-04-27T23:10:30.973Z,17.98
2023-04-27T23:12:57.570Z,19.55
2023-04-27T23:15:24.223Z,28.65
2023-04-27T23:17:50.843Z,31.90
2023-04-27T23:22:51.486Z,25.98
2023-04-27T23:25:18.105Z,24.27
2023-04-27T23:27:44.646Z,28.15
2023-04-27T23:30:11.671Z,30.75
2023-04-27T23:32:38.345Z,30.65
2023-04-27T23:35:05.742Z,31.88
2023-04-27T23:37:32.264Z,31.45
2023-04-27T23:40:00.328Z,32.95
2023-04-27T23:42:26.874Z,33.30
2023-04-27T23:44:53.419Z,31.73
2023-04-27T23:47:20.228Z,28.40
2023-04-27T23:49:46.785Z,26.77
2023-04-27T23:52:13.397Z,30.15
2023-04-27T23:54:39.997Z,33.65
2023-04-27T23:57:06.779Z,33.50
2023-04-27T23:59:35.636Z,33.63
